Time;durP1;ratioP1;P1;durP2;ratioP2;P2;SDS_P1;SDS_P2;PMS_P1;PMS_P2;Temp;Humidity;BMP_temperature;BMP_pressure;BME280_temperature;BME280_humidity;BME280_pressure;Samples;Min_cycle;Max_cycle;Signal;HPM_P1;HPM_P2
2022/04/29 00:00:17;;;;;;;16.02;10.35;;;;;;;;;;4985682;28;20195;-80
2022/04/29 00:02:44;;;;;;;17.40;11.25;;;;;;;;;;5005257;28;20199;-79
2022/04/29 00:05:10;;;;;;;13.20;9.80;;;;;;;;;;4999982;28;20187;-79
2022/04/29 00:07:38;;;;;;;15.13;10.43;;;;;;;;;;5001672;28;20183;-80
2022/04/29 00:10:05;;;;;;;14.10;10.52;;;;;;;;;;4987164;28;20222;-80
2022/04/29 00:12:31;;;;;;;17.15;11.50;;;;;;;;;;4986806;28;20193;-80
2022/04/29 00:14:57;;;;;;;15.27;11.07;;;;;;;;;;4987018;28;20652;-80
2022/04/29 00:17:23;;;;;;;13.13;9.67;;;;;;;;;;4937546;28;1352949;-79
2022/04/29 00:19:49;;;;;;;12.82;10.00;;;;;;;;;;5002736;28;20194;-78
2022/04/29 00:22:16;;;;;;;74.13;67.43;;;;;;;;;;4987489;28;20227;-80
2022/04/29 00:24:42;;;;;;;13.73;11.10;;;;;;;;;;4987345;28;20676;-80
2022/04/29 00:27:08;;;;;;;15.48;10.88;;;;;;;;;;5004954;28;20254;-79
2022/04/29 00:29:34;;;;;;;16.27;11.30;;;;;;;;;;4988053;28;20252;-80
2022/04/29 00:32:00;;;;;;;13.27;11.77;;;;;;;;;;5002344;28;20190;-80
2022/04/29 00:34:26;;;;;;;18.07;11.93;;;;;;;;;;5002067;28;20187;-79
2022/04/29 00:36:52;;;;;;;15.20;11.47;;;;;;;;;;5002911;28;20442;-80
2022/04/29 00:39:18;;;;;;;18.42;11.85;;;;;;;;;;4985115;28;20477;-79
2022/04/29 00:41:44;;;;;;;14.85;12.07;;;;;;;;;;4973640;28;20200;-79
2022/04/29 00:44:11;;;;;;;17.98;12.85;;;;;;;;;;5001533;28;20176;-80
2022/04/29 00:46:39;;;;;;;17.25;12.15;;;;;;;;;;5004296;28;20182;-79
2022/04/29 00:49:06;;;;;;;21.75;13.10;;;;;;;;;;5001893;28;20189;-79
2022/04/29 00:51:32;;;;;;;15.23;12.70;;;;;;;;;;5002628;28;20197;-79
2022/04/29 00:53:59;;;;;;;18.45;12.80;;;;;;;;;;4986507;28;20172;-79
2022/04/29 00:56:27;;;;;;;19.25;13.13;;;;;;;;;;5003524;28;20247;-80
2022/04/29 00:59:01;;;;;;;17.35;13.65;;;;;;;;;;4987133;28;20185;-80
2022/04/29 01:01:27;;;;;;;16.67;12.23;;;;;;;;;;4987185;28;20190;-79
2022/04/29 01:03:54;;;;;;;17.63;13.57;;;;;;;;;;4985658;28;20243;-79
2022/04/29 01:06:20;;;;;;;20.95;13.07;;;;;;;;;;4969374;28;20173;-79
2022/04/29 01:08:46;;;;;;;18.33;13.57;;;;;;;;;;5005351;28;20177;-80
2022/04/29 01:11:12;;;;;;;17.43;13.03;;;;;;;;;;4987366;28;20509;-79
2022/04/29 01:13:38;;;;;;;18.50;13.70;;;;;;;;;;4986426;28;20447;-79
2022/04/29 01:16:06;;;;;;;19.88;13.35;;;;;;;;;;4986717;28;20471;-79
2022/04/29 01:18:32;;;;;;;16.55;13.55;;;;;;;;;;5001368;28;20234;-80
2022/04/29 01:21:03;;;;;;;14.73;12.85;;;;;;;;;;5004056;28;20638;-79
2022/04/29 01:23:29;;;;;;;20.58;14.10;;;;;;;;;;5004879;28;20310;-79
2022/04/29 01:25:55;;;;;;;15.65;12.20;;;;;;;;;;5001525;28;20183;-79
2022/04/29 01:28:21;;;;;;;16.77;13.40;;;;;;;;;;5002951;28;20241;-79
2022/04/29 01:30:50;;;;;;;19.55;14.70;;;;;;;;;;5001741;28;20178;-79
2022/04/29 01:33:17;;;;;;;22.40;14.52;;;;;;;;;;5001885;28;20550;-79
2022/04/29 01:35:43;;;;;;;14.52;12.38;;;;;;;;;;4971781;28;20173;-79
2022/04/29 01:38:09;;;;;;;17.57;13.13;;;;;;;;;;4989069;28;20278;-79
2022/04/29 01:40:35;;;;;;;17.75;12.77;;;;;;;;;;4995747;28;20441;-79
2022/04/29 01:43:02;;;;;;;21.98;13.20;;;;;;;;;;5000689;28;20289;-79
2022/04/29 01:45:28;;;;;;;16.85;13.68;;;;;;;;;;5001363;28;20179;-79
2022/04/29 01:47:54;;;;;;;20.05;12.65;;;;;;;;;;5004432;28;20172;-79
2022/04/29 01:50:20;;;;;;;17.30;13.40;;;;;;;;;;4972752;28;20187;-79
2022/04/29 01:52:46;;;;;;;16.95;12.55;;;;;;;;;;4997087;28;20438;-78
2022/04/29 01:55:12;;;;;;;16.63;14.07;;;;;;;;;;5000664;28;20255;-79
2022/04/29 01:57:38;;;;;;;15.32;12.85;;;;;;;;;;5000851;28;20214;-79
2022/04/29 02:00:05;;;;;;;17.83;13.43;;;;;;;;;;5003709;28;20184;-80
2022/04/29 02:02:31;;;;;;;17.33;12.70;;;;;;;;;;5002436;28;20217;-79
2022/04/29 02:04:57;;;;;;;23.70;15.02;;;;;;;;;;5000066;28;20187;-79
2022/04/29 02:07:23;;;;;;;17.53;13.43;;;;;;;;;;5001480;28;20187;-79
2022/04/29 02:09:49;;;;;;;21.50;14.83;;;;;;;;;;4985610;28;20430;-79
2022/04/29 02:12:15;;;;;;;18.70;13.80;;;;;;;;;;4984057;28;20435;-79
2022/04/29 02:14:43;;;;;;;19.20;14.50;;;;;;;;;;4971723;28;20462;-80
2022/04/29 02:17:10;;;;;;;19.50;13.70;;;;;;;;;;5000144;28;20228;-79
2022/04/29 02:19:36;;;;;;;20.67;13.48;;;;;;;;;;4985559;28;20183;-80
2022/04/29 02:22:03;;;;;;;21.33;14.13;;;;;;;;;;4985794;28;20629;-79
2022/04/29 02:24:29;;;;;;;22.42;13.77;;;;;;;;;;4985813;28;20653;-79
2022/04/29 02:26:55;;;;;;;21.92;14.00;;;;;;;;;;5003193;28;20214;-79
2022/04/29 02:29:22;;;;;;;19.85;14.40;;;;;;;;;;4972396;28;20258;-79
2022/04/29 02:31:52;;;;;;;22.17;13.48;;;;;;;;;;4996917;28;20206;-79
2022/04/29 02:34:18;;;;;;;19.80;14.85;;;;;;;;;;4985077;28;20191;-80
2022/04/29 02:36:44;;;;;;;17.23;13.60;;;;;;;;;;5000718;28;20194;-80
2022/04/29 02:39:10;;;;;;;18.98;12.52;;;;;;;;;;5001872;28;20179;-79
2022/04/29 02:41:40;;;;;;;18.48;14.27;;;;;;;;;;5003146;28;20250;-80
2022/04/29 02:44:06;;;;;;;19.55;14.48;;;;;;;;;;4985742;28;20198;-80
2022/04/29 02:46:32;;;;;;;19.05;14.52;;;;;;;;;;4985621;28;20176;-80
2022/04/29 02:48:58;;;;;;;22.20;14.80;;;;;;;;;;4999969;28;20206;-80
2022/04/29 02:51:24;;;;;;;19.80;13.77;;;;;;;;;;4988173;28;20179;-79
2022/04/29 02:53:51;;;;;;;21.15;15.35;;;;;;;;;;5003729;28;20442;-80
2022/04/29 02:56:17;;;;;;;17.73;14.27;;;;;;;;;;4986297;28;20186;-80
2022/04/29 02:58:43;;;;;;;18.33;14.20;;;;;;;;;;5000207;28;20278;-80
2022/04/29 03:01:09;;;;;;;20.83;15.40;;;;;;;;;;4985669;28;20198;-80
2022/04/29 03:03:35;;;;;;;23.67;15.25;;;;;;;;;;5000113;28;20203;-79
2022/04/29 03:06:01;;;;;;;18.07;15.00;;;;;;;;;;5002659;28;20644;-78
2022/04/29 03:08:27;;;;;;;20.60;14.13;;;;;;;;;;5001217;28;20414;-80
2022/04/29 03:10:53;;;;;;;22.42;16.20;;;;;;;;;;4985528;28;20501;-80
2022/04/29 03:13:19;;;;;;;20.15;14.20;;;;;;;;;;5000283;28;20624;-80
2022/04/29 03:15:45;;;;;;;20.08;13.85;;;;;;;;;;4985444;28;20258;-80
2022/04/29 03:18:21;;;;;;;21.42;15.00;;;;;;;;;;5001636;28;20198;-80
2022/04/29 03:20:48;;;;;;;20.45;13.70;;;;;;;;;;4971400;28;20175;-81
2022/04/29 03:23:14;;;;;;;24.27;15.50;;;;;;;;;;4999517;28;20676;-81
2022/04/29 03:25:40;;;;;;;19.38;15.10;;;;;;;;;;4992370;28;20191;-80
2022/04/29 03:28:06;;;;;;;18.42;13.90;;;;;;;;;;4992521;28;20190;-81
2022/04/29 03:30:33;;;;;;;19.80;13.90;;;;;;;;;;4985965;28;20180;-81
2022/04/29 03:33:00;;;;;;;26.52;15.02;;;;;;;;;;4988559;28;20190;-80
2022/04/29 03:35:26;;;;;;;21.58;13.88;;;;;;;;;;5004305;28;20233;-80
2022/04/29 03:37:53;;;;;;;24.10;15.95;;;;;;;;;;5003351;28;20716;-80
2022/04/29 03:40:21;;;;;;;22.30;14.93;;;;;;;;;;4988457;28;20194;-80
2022/04/29 03:42:48;;;;;;;22.35;13.52;;;;;;;;;;4989003;28;20207;-80
2022/04/29 03:45:14;;;;;;;20.15;13.32;;;;;;;;;;5004660;28;20217;-80
2022/04/29 03:47:41;;;;;;;17.63;13.65;;;;;;;;;;4974592;28;20178;-80
2022/04/29 03:50:07;;;;;;;19.48;14.57;;;;;;;;;;4990520;28;20191;-80
2022/04/29 03:52:33;;;;;;;23.25;15.50;;;;;;;;;;4997583;28;20189;-80
2022/04/29 03:54:59;;;;;;;23.88;16.67;;;;;;;;;;4988543;28;20198;-80
2022/04/29 03:57:25;;;;;;;18.20;14.80;;;;;;;;;;4986482;28;20586;-80
2022/04/29 03:59:51;;;;;;;19.95;14.32;;;;;;;;;;4989185;28;20179;-79
2022/04/29 04:02:17;;;;;;;17.87;14.50;;;;;;;;;;4988694;28;20680;-80
2022/04/29 04:04:44;;;;;;;20.33;15.40;;;;;;;;;;5002473;28;20449;-79
2022/04/29 04:07:10;;;;;;;25.25;16.35;;;;;;;;;;5002823;28;20175;-80
2022/04/29 04:09:37;;;;;;;25.08;14.85;;;;;;;;;;4986828;28;20176;-80
2022/04/29 04:12:03;;;;;;;21.50;15.15;;;;;;;;;;5006096;28;20657;-80
2022/04/29 04:14:29;;;;;;;25.52;16.25;;;;;;;;;;4988922;28;20391;-80
2022/04/29 04:16:55;;;;;;;21.20;12.90;;;;;;;;;;5002881;28;20239;-80
2022/04/29 04:19:21;;;;;;;21.00;14.68;;;;;;;;;;5002303;28;20442;-80
2022/04/29 04:21:47;;;;;;;21.00;14.57;;;;;;;;;;4988074;28;20214;-80
2022/04/29 04:24:13;;;;;;;23.53;15.43;;;;;;;;;;5004304;28;20508;-80
2022/04/29 04:26:40;;;;;;;23.33;14.93;;;;;;;;;;5005666;28;20413;-80
2022/04/29 04:29:06;;;;;;;19.30;14.88;;;;;;;;;;4988093;28;20187;-80
2022/04/29 04:31:32;;;;;;;23.20;15.00;;;;;;;;;;5002819;28;20190;-80
2022/04/29 04:33:58;;;;;;;24.60;15.27;;;;;;;;;;4986815;28;20606;-80
2022/04/29 04:36:24;;;;;;;21.93;15.03;;;;;;;;;;4985431;28;20494;-80
2022/04/29 04:38:50;;;;;;;23.40;13.95;;;;;;;;;;4987710;28;20445;-80
2022/04/29 04:41:16;;;;;;;19.23;14.85;;;;;;;;;;4987503;28;20203;-80
2022/04/29 04:43:42;;;;;;;23.13;15.05;;;;;;;;;;5001936;28;20660;-80
2022/04/29 04:46:09;;;;;;;20.55;14.88;;;;;;;;;;4987503;28;20183;-80
2022/04/29 04:48:35;;;;;;;24.30;15.52;;;;;;;;;;4986079;28;20244;-80
2022/04/29 04:51:03;;;;;;;21.30;13.80;;;;;;;;;;5004123;28;20180;-80
2022/04/29 04:53:30;;;;;;;30.15;15.48;;;;;;;;;;5003556;28;20198;-81
2022/04/29 04:55:56;;;;;;;20.13;14.82;;;;;;;;;;5002202;28;20545;-80
2022/04/29 04:58:22;;;;;;;20.85;13.40;;;;;;;;;;4987457;28;20191;-80
2022/04/29 05:00:48;;;;;;;18.92;15.07;;;;;;;;;;4987476;28;20253;-80
2022/04/29 05:03:14;;;;;;;20.15;15.02;;;;;;;;;;4985257;28;20195;-80
2022/04/29 05:05:40;;;;;;;17.60;12.70;;;;;;;;;;5003328;28;20649;-80
2022/04/29 05:08:06;;;;;;;18.90;15.27;;;;;;;;;;5002072;28;20441;-80
2022/04/29 05:10:32;;;;;;;18.23;13.35;;;;;;;;;;4987021;28;20640;-80
2022/04/29 05:12:58;;;;;;;21.27;14.90;;;;;;;;;;5001624;28;20190;-80
2022/04/29 05:15:24;;;;;;;19.80;14.63;;;;;;;;;;5001873;28;20191;-80
2022/04/29 05:17:50;;;;;;;24.43;15.43;;;;;;;;;;4988148;28;20232;-80
2022/04/29 05:20:17;;;;;;;20.17;13.35;;;;;;;;;;5000976;28;20536;-80
2022/04/29 05:22:44;;;;;;;22.33;15.00;;;;;;;;;;4986737;28;20366;-80
2022/04/29 05:25:10;;;;;;;26.60;14.77;;;;;;;;;;4986828;28;20183;-80
2022/04/29 05:27:36;;;;;;;20.15;15.13;;;;;;;;;;5001902;28;20180;-80
2022/04/29 05:30:02;;;;;;;19.70;15.35;;;;;;;;;;4986251;28;20182;-80
2022/04/29 05:32:29;;;;;;;23.88;14.63;;;;;;;;;;4987817;28;20593;-80
2022/04/29 05:34:56;;;;;;;24.48;14.63;;;;;;;;;;4985186;28;20195;-81
2022/04/29 05:37:23;;;;;;;22.35;15.38;;;;;;;;;;4983934;28;20174;-80
2022/04/29 05:42:33;;;;;;;21.20;15.75;;;;;;;;;;4987375;28;20723;-80
2022/04/29 05:45:00;;;;;;;19.80;14.63;;;;;;;;;;5003687;28;20179;-80
2022/04/29 05:47:26;;;;;;;27.17;14.45;;;;;;;;;;5002700;28;20414;-80
2022/04/29 05:49:52;;;;;;;18.73;13.95;;;;;;;;;;5001397;28;20221;-80
2022/04/29 05:52:18;;;;;;;23.17;15.57;;;;;;;;;;5001329;28;20215;-80
2022/04/29 05:54:45;;;;;;;19.85;13.75;;;;;;;;;;5001271;28;20489;-80
2022/04/29 05:57:11;;;;;;;20.83;14.95;;;;;;;;;;4985585;28;20178;-80
2022/04/29 05:59:37;;;;;;;24.35;14.70;;;;;;;;;;5005035;28;20194;-80
2022/04/29 06:02:03;;;;;;;24.60;14.27;;;;;;;;;;5000984;28;20214;-80
2022/04/29 06:04:29;;;;;;;22.23;15.85;;;;;;;;;;4985022;28;20191;-80
2022/04/29 06:06:55;;;;;;;22.83;16.30;;;;;;;;;;4986114;28;20201;-80
2022/04/29 06:09:21;;;;;;;21.20;14.63;;;;;;;;;;5001350;28;20434;-80
2022/04/29 06:11:47;;;;;;;22.73;14.75;;;;;;;;;;5003724;28;20414;-80
2022/04/29 06:14:13;;;;;;;21.63;15.52;;;;;;;;;;5000750;28;20183;-80
2022/04/29 06:16:39;;;;;;;22.73;15.40;;;;;;;;;;5000217;28;20288;-80
2022/04/29 06:19:05;;;;;;;21.42;14.70;;;;;;;;;;4983312;28;20191;-80
2022/04/29 06:21:31;;;;;;;23.23;16.90;;;;;;;;;;5002215;28;20673;-80
2022/04/29 06:23:57;;;;;;;26.67;15.40;;;;;;;;;;5003405;28;20418;-81
2022/04/29 06:26:23;;;;;;;20.75;15.60;;;;;;;;;;5001878;28;20410;-80
2022/04/29 06:28:49;;;;;;;20.80;16.40;;;;;;;;;;5001026;28;20533;-81
2022/04/29 06:31:15;;;;;;;30.83;16.90;;;;;;;;;;4985092;28;20513;-81
2022/04/29 06:33:41;;;;;;;27.95;17.02;;;;;;;;;;5000044;28;20195;-80
2022/04/29 06:36:07;;;;;;;26.73;16.35;;;;;;;;;;4985451;28;20175;-80
2022/04/29 06:38:34;;;;;;;25.55;17.27;;;;;;;;;;4971733;28;20247;-80
2022/04/29 06:41:01;;;;;;;27.52;17.98;;;;;;;;;;4997878;28;20191;-80
2022/04/29 06:43:29;;;;;;;24.40;17.02;;;;;;;;;;4985770;28;20220;-80
2022/04/29 06:45:55;;;;;;;21.73;15.60;;;;;;;;;;5000283;28;20171;-80
2022/04/29 06:48:21;;;;;;;29.77;17.45;;;;;;;;;;5001042;28;20202;-80
2022/04/29 06:50:47;;;;;;;24.50;15.90;;;;;;;;;;5003345;28;20172;-81
2022/04/29 06:53:13;;;;;;;28.75;16.40;;;;;;;;;;5000200;28;20503;-80
2022/04/29 06:55:40;;;;;;;28.60;18.37;;;;;;;;;;4985582;28;20195;-80
2022/04/29 06:58:06;;;;;;;24.15;17.30;;;;;;;;;;5000417;28;20513;-80
2022/04/29 07:00:33;;;;;;;25.80;17.58;;;;;;;;;;5000119;28;20187;-82
2022/04/29 07:03:02;;;;;;;28.25;19.05;;;;;;;;;;5005692;28;20199;-81
2022/04/29 07:05:30;;;;;;;28.48;20.08;;;;;;;;;;5006457;28;20175;-79
2022/04/29 07:07:57;;;;;;;27.10;19.13;;;;;;;;;;5004295;28;20194;-80
2022/04/29 07:10:23;;;;;;;28.25;17.70;;;;;;;;;;5003755;28;20171;-80
2022/04/29 07:12:49;;;;;;;32.67;19.23;;;;;;;;;;4989761;28;20201;-80
2022/04/29 07:15:15;;;;;;;26.70;17.67;;;;;;;;;;4987120;28;20255;-80
2022/04/29 07:17:42;;;;;;;31.08;20.27;;;;;;;;;;4975047;28;20467;-80
2022/04/29 07:20:09;;;;;;;24.80;17.23;;;;;;;;;;4991682;28;20346;-80
2022/04/29 07:22:37;;;;;;;27.35;17.98;;;;;;;;;;4997875;28;20203;-82
2022/04/29 07:25:03;;;;;;;23.05;17.52;;;;;;;;;;5003924;28;20250;-80
2022/04/29 07:27:29;;;;;;;27.33;20.10;;;;;;;;;;4987063;28;20184;-82
2022/04/29 07:29:55;;;;;;;23.85;16.88;;;;;;;;;;5006810;28;20178;-79
2022/04/29 07:32:21;;;;;;;28.93;20.00;;;;;;;;;;5005644;28;20194;-79
2022/04/29 07:43:01;;;;;;;28.02;19.45;;;;;;;;;;5003418;28;20564;-79
2022/04/29 07:45:27;;;;;;;29.33;19.37;;;;;;;;;;5003350;28;20203;-79
2022/04/29 07:47:53;;;;;;;25.57;17.77;;;;;;;;;;5006989;28;20415;-80
2022/04/29 07:50:19;;;;;;;31.13;18.67;;;;;;;;;;5003489;28;20426;-80
2022/04/29 07:52:45;;;;;;;25.63;18.97;;;;;;;;;;5003411;28;20454;-79
2022/04/29 07:55:11;;;;;;;27.40;19.53;;;;;;;;;;5002854;28;20562;-80
2022/04/29 07:57:37;;;;;;;26.10;17.77;;;;;;;;;;5003537;28;20435;-79
2022/04/29 08:00:04;;;;;;;26.67;18.70;;;;;;;;;;5005561;28;20904;-79
2022/04/29 08:02:30;;;;;;;27.58;20.42;;;;;;;;;;4988860;28;20459;-80
2022/04/29 08:04:56;;;;;;;26.65;19.27;;;;;;;;;;5002476;28;20262;-79
2022/04/29 08:07:23;;;;;;;24.45;19.00;;;;;;;;;;4988613;28;20546;-80
2022/04/29 08:09:49;;;;;;;27.92;18.90;;;;;;;;;;4988294;28;20188;-80
2022/04/29 08:12:15;;;;;;;28.90;19.63;;;;;;;;;;5003539;28;20191;-80
2022/04/29 08:14:41;;;;;;;28.50;19.80;;;;;;;;;;4973341;28;20440;-79
2022/04/29 08:17:07;;;;;;;30.00;18.60;;;;;;;;;;4997613;28;20237;-78
2022/04/29 08:19:33;;;;;;;29.57;20.57;;;;;;;;;;5002105;28;20558;-79
2022/04/29 08:21:59;;;;;;;29.23;18.20;;;;;;;;;;5002794;28;20478;-79
2022/04/29 08:24:26;;;;;;;28.80;20.30;;;;;;;;;;4985784;28;20534;-80
2022/04/29 08:26:52;;;;;;;27.08;19.40;;;;;;;;;;5006787;28;20204;-80
2022/04/29 08:29:18;;;;;;;28.35;21.48;;;;;;;;;;5002675;28;20182;-80
2022/04/29 08:31:44;;;;;;;30.30;20.47;;;;;;;;;;5002329;28;20194;-79
2022/04/29 08:34:11;;;;;;;27.80;20.00;;;;;;;;;;5001969;28;20445;-79
2022/04/29 08:36:37;;;;;;;30.30;19.55;;;;;;;;;;4986497;28;20816;-79
2022/04/29 08:39:03;;;;;;;29.97;20.47;;;;;;;;;;5005192;28;20181;-80
2022/04/29 08:41:30;;;;;;;28.17;20.67;;;;;;;;;;5003785;28;20443;-79
2022/04/29 08:43:57;;;;;;;26.13;20.98;;;;;;;;;;4987376;28;20779;-79
2022/04/29 08:46:23;;;;;;;29.15;20.50;;;;;;;;;;4987619;28;20604;-81
2022/04/29 08:48:50;;;;;;;27.73;19.98;;;;;;;;;;4988145;28;20296;-79
2022/04/29 08:51:17;;;;;;;30.30;20.40;;;;;;;;;;5002700;28;20179;-80
2022/04/29 08:53:43;;;;;;;26.58;20.80;;;;;;;;;;5005013;28;20217;-80
2022/04/29 08:58:54;;;;;;;27.65;21.08;;;;;;;;;;5002049;28;20208;-81
2022/04/29 09:01:21;;;;;;;23.35;20.52;;;;;;;;;;4987282;28;20649;-80
2022/04/29 09:03:47;;;;;;;26.65;18.80;;;;;;;;;;4986913;28;20306;-80
2022/04/29 09:06:17;;;;;;;29.58;19.77;;;;;;;;;;4985950;28;20319;-79
2022/04/29 09:08:46;;;;;;;23.85;19.35;;;;;;;;;;4973536;28;20180;-79
2022/04/29 09:11:26;;;;;;;26.73;19.55;;;;;;;;;;5000975;28;20696;-80
2022/04/29 09:13:52;;;;;;;26.13;19.67;;;;;;;;;;5001892;28;20222;-79
2022/04/29 09:16:18;;;;;;;26.25;18.52;;;;;;;;;;5001834;28;20223;-78
2022/04/29 09:18:45;;;;;;;27.67;19.23;;;;;;;;;;5002227;28;20576;-80
2022/04/29 09:21:13;;;;;;;23.55;18.77;;;;;;;;;;4985371;28;20437;-80
2022/04/29 09:23:55;;;;;;;21.55;17.85;;;;;;;;;;4985298;28;20647;-79
2022/04/29 09:26:26;;;;;;;28.15;18.83;;;;;;;;;;4984438;28;20175;-80
2022/04/29 09:29:11;;;;;;;24.08;18.50;;;;;;;;;;4987187;28;20183;-79
2022/04/29 09:31:52;;;;;;;22.35;18.02;;;;;;;;;;4986965;28;20285;-80
2022/04/29 09:34:18;;;;;;;20.88;17.58;;;;;;;;;;5001073;28;20208;-80
2022/04/29 09:36:45;;;;;;;24.63;18.10;;;;;;;;;;5001750;28;20186;-79
2022/04/29 09:42:02;;;;;;;23.17;17.88;;;;;;;;;;5000936;28;20205;-79
2022/04/29 09:44:35;;;;;;;24.50;18.02;;;;;;;;;;5002493;28;21186;-79
2022/04/29 09:47:11;;;;;;;22.20;17.13;;;;;;;;;;4984192;28;20183;-78
2022/04/29 09:49:37;;;;;;;25.20;18.70;;;;;;;;;;5001762;28;20183;-79
2022/04/29 09:52:04;;;;;;;27.65;18.20;;;;;;;;;;4986006;28;20187;-78
2022/04/29 09:54:31;;;;;;;21.60;17.23;;;;;;;;;;5000809;28;20183;-78
2022/04/29 09:57:06;;;;;;;22.98;17.15;;;;;;;;;;5004170;28;20616;-79
2022/04/29 09:59:33;;;;;;;25.40;17.73;;;;;;;;;;4987015;28;20170;-79
2022/04/29 10:02:00;;;;;;;21.65;17.88;;;;;;;;;;5002087;28;20230;-80
2022/04/29 10:04:29;;;;;;;26.90;18.48;;;;;;;;;;5000062;28;20180;-79
2022/04/29 10:06:55;;;;;;;21.30;17.50;;;;;;;;;;4993378;28;20175;-80
2022/04/29 10:09:22;;;;;;;24.23;17.63;;;;;;;;;;5000142;28;20218;-82
2022/04/29 10:11:48;;;;;;;23.92;18.10;;;;;;;;;;5004153;28;20175;-81
2022/04/29 10:14:15;;;;;;;21.38;16.25;;;;;;;;;;4983418;28;20190;-79
2022/04/29 10:16:44;;;;;;;18.23;15.57;;;;;;;;;;4985898;28;20581;-79
2022/04/29 10:21:58;;;;;;;21.58;15.25;;;;;;;;;;5000538;28;20321;-80
2022/04/29 10:24:25;;;;;;;23.60;16.38;;;;;;;;;;4985829;28;20644;-81
2022/04/29 10:26:53;;;;;;;23.08;17.30;;;;;;;;;;5000899;28;20167;-80
2022/04/29 10:29:19;;;;;;;19.88;15.23;;;;;;;;;;5000934;28;20256;-79
2022/04/29 10:32:06;;;;;;;21.00;17.40;;;;;;;;;;4985520;28;20214;-80
2022/04/29 10:34:33;;;;;;;24.20;16.67;;;;;;;;;;4982464;28;20187;-80
2022/04/29 10:36:59;;;;;;;22.15;16.95;;;;;;;;;;5003566;28;20178;-80
2022/04/29 10:39:25;;;;;;;19.58;16.75;;;;;;;;;;5005981;28;20225;-80
2022/04/29 10:41:58;;;;;;;21.25;15.80;;;;;;;;;;4990484;28;20175;-80
2022/04/29 10:44:23;;;;;;;22.98;16.00;;;;;;;;;;4992436;28;20187;-80
2022/04/29 10:46:49;;;;;;;20.57;15.70;;;;;;;;;;5001017;28;20190;-80
2022/04/29 10:49:28;;;;;;;18.77;15.07;;;;;;;;;;5003908;28;20445;-83
2022/04/29 10:51:55;;;;;;;24.73;16.02;;;;;;;;;;5004406;28;20438;-82
2022/04/29 10:54:33;;;;;;;23.00;16.00;;;;;;;;;;4989061;28;20186;-82
2022/04/29 10:57:04;;;;;;;19.67;15.70;;;;;;;;;;4986798;28;20183;-81
2022/04/29 10:59:49;;;;;;;20.77;14.52;;;;;;;;;;4990184;28;20199;-80
2022/04/29 11:02:23;;;;;;;18.67;14.20;;;;;;;;;;5004135;28;20204;-81
2022/04/29 11:04:49;;;;;;;19.10;15.48;;;;;;;;;;5003970;28;20230;-83
2022/04/29 11:07:38;;;;;;;20.08;15.10;;;;;;;;;;5004187;28;20182;-80
2022/04/29 11:10:05;;;;;;;19.58;13.68;;;;;;;;;;5004397;28;20189;-82
2022/04/29 11:12:36;;;;;;;19.75;13.45;;;;;;;;;;5004448;28;20181;-81
2022/04/29 11:15:13;;;;;;;17.88;13.45;;;;;;;;;;5006452;28;20180;-79
2022/04/29 11:17:39;;;;;;;18.33;13.23;;;;;;;;;;5002201;28;20353;-82
2022/04/29 11:20:18;;;;;;;18.75;14.18;;;;;;;;;;5002008;28;20274;-82
2022/04/29 11:25:50;;;;;;;19.92;13.05;;;;;;;;;;5003688;28;20233;-81
2022/04/29 11:28:16;;;;;;;16.38;12.57;;;;;;;;;;5003948;28;20184;-82
2022/04/29 11:30:43;;;;;;;21.08;12.82;;;;;;;;;;5003926;28;20185;-83
2022/04/29 11:33:08;;;;;;;16.42;11.95;;;;;;;;;;4987948;28;20178;-81
2022/04/29 11:35:35;;;;;;;15.20;11.30;;;;;;;;;;4973825;28;20231;-80
2022/04/29 11:38:01;;;;;;;18.00;12.65;;;;;;;;;;5001485;28;20463;-81
2022/04/29 11:40:27;;;;;;;16.25;11.57;;;;;;;;;;5005670;28;20241;-81
2022/04/29 11:42:53;;;;;;;14.65;12.18;;;;;;;;;;4988433;28;20211;-81
2022/04/29 11:45:21;;;;;;;13.15;10.32;;;;;;;;;;5004509;28;20211;-80
2022/04/29 11:47:47;;;;;;;14.15;12.25;;;;;;;;;;4973823;28;20170;-85
2022/04/29 11:50:12;;;;;;;15.93;13.10;;;;;;;;;;5002048;28;20190;-82
2022/04/29 11:52:39;;;;;;;16.37;13.10;;;;;;;;;;5003058;28;20221;-82
2022/04/29 11:55:06;;;;;;;14.98;12.77;;;;;;;;;;5003566;28;20475;-80
2022/04/29 11:57:33;;;;;;;15.30;12.20;;;;;;;;;;4986649;28;20194;-78
2022/04/29 12:00:00;;;;;;;17.35;12.93;;;;;;;;;;4987943;28;20220;-77
2022/04/29 12:02:27;;;;;;;18.42;14.00;;;;;;;;;;4988494;28;20208;-79
2022/04/29 12:05:00;;;;;;;15.70;12.40;;;;;;;;;;4983966;28;20710;-80
2022/04/29 12:07:40;;;;;;;19.45;13.02;;;;;;;;;;4988532;28;20273;-82
2022/04/29 12:10:26;;;;;;;14.87;12.77;;;;;;;;;;5003083;28;20188;-81
2022/04/29 12:12:59;;;;;;;17.63;13.60;;;;;;;;;;5002879;28;20464;-81
2022/04/29 12:15:35;;;;;;;14.90;10.93;;;;;;;;;;4982927;28;20443;-80
2022/04/29 12:18:08;;;;;;;14.23;11.50;;;;;;;;;;5005070;28;20418;-80
2022/04/29 12:20:34;;;;;;;16.00;10.93;;;;;;;;;;4986652;28;20517;-82
2022/04/29 12:23:09;;;;;;;13.40;10.67;;;;;;;;;;5002892;28;21026;-81
2022/04/29 12:25:38;;;;;;;16.17;12.57;;;;;;;;;;5002930;28;20770;-82
2022/04/29 12:28:19;;;;;;;15.53;11.67;;;;;;;;;;5002871;28;20459;-79
2022/04/29 12:36:49;;;;;;;17.60;11.60;;;;;;;;;;4990113;28;20416;-80
2022/04/29 12:39:15;;;;;;;15.97;10.93;;;;;;;;;;5003815;28;20443;-80
2022/04/29 12:41:42;;;;;;;20.30;11.37;;;;;;;;;;4973699;28;20414;-82
2022/04/29 12:45:03;;;;;;;16.33;11.17;;;;;;;;;;4989883;28;20467;-83
2022/04/29 12:47:01;;;;;;;15.97;10.27;;;;;;;;;;4999814;28;20440;-85
2022/04/29 12:49:27;;;;;;;11.90;10.00;;;;;;;;;;4987418;28;20455;-82
2022/04/29 12:52:00;;;;;;;13.63;10.17;;;;;;;;;;5002384;28;20440;-80
2022/04/29 12:54:27;;;;;;;13.93;9.37;;;;;;;;;;4968830;28;20414;-80
2022/04/29 12:56:53;;;;;;;13.50;10.50;;;;;;;;;;5005723;28;20880;-83
2022/04/29 12:59:22;;;;;;;13.27;10.27;;;;;;;;;;4986866;28;20489;-82
2022/04/29 13:01:48;;;;;;;13.00;9.50;;;;;;;;;;5001705;28;20493;-82
2022/04/29 13:04:14;;;;;;;11.13;9.20;;;;;;;;;;5001097;28;20428;-79
2022/04/29 13:06:40;;;;;;;9.27;7.50;;;;;;;;;;5001621;28;20414;-86
2022/04/29 13:09:06;;;;;;;15.17;10.83;;;;;;;;;;4986878;28;20449;-80
2022/04/29 13:11:32;;;;;;;12.43;8.00;;;;;;;;;;4988002;28;20435;-82
2022/04/29 13:13:58;;;;;;;12.83;9.30;;;;;;;;;;5001401;28;20434;-84
2022/04/29 13:16:25;;;;;;;11.97;9.17;;;;;;;;;;5001233;28;20878;-83
2022/04/29 13:18:51;;;;;;;11.33;8.27;;;;;;;;;;5003968;28;20441;-82
2022/04/29 13:21:17;;;;;;;10.33;7.40;;;;;;;;;;4984615;28;20427;-81
2022/04/29 13:23:45;;;;;;;8.73;7.90;;;;;;;;;;4987797;28;20488;-83
2022/04/29 13:26:13;;;;;;;12.63;7.80;;;;;;;;;;4984176;28;20421;-82
2022/04/29 13:28:39;;;;;;;11.70;8.83;;;;;;;;;;5001563;28;20447;-80
2022/04/29 13:31:05;;;;;;;9.57;7.50;;;;;;;;;;5001395;28;20436;-80
2022/04/29 13:33:32;;;;;;;8.83;7.80;;;;;;;;;;5000580;28;20933;-82
2022/04/29 13:35:59;;;;;;;10.10;7.50;;;;;;;;;;4986044;28;20425;-83
2022/04/29 13:38:25;;;;;;;8.10;7.33;;;;;;;;;;4986419;28;20491;-82
2022/04/29 13:40:51;;;;;;;7.77;6.87;;;;;;;;;;5001574;28;20456;-81
2022/04/29 13:43:18;;;;;;;8.37;7.00;;;;;;;;;;5001166;28;21006;-82
2022/04/29 13:45:47;;;;;;;9.40;7.20;;;;;;;;;;5001469;28;20524;-85
2022/04/29 13:48:14;;;;;;;11.60;8.80;;;;;;;;;;4984902;28;20453;-83
2022/04/29 13:50:40;;;;;;;14.23;8.07;;;;;;;;;;5003467;28;20432;-81
2022/04/29 13:53:09;;;;;;;10.53;7.33;;;;;;;;;;4986328;28;20449;-80
2022/04/29 13:55:39;;;;;;;9.97;7.87;;;;;;;;;;5001073;28;20423;-80
2022/04/29 13:58:06;;;;;;;7.90;7.20;;;;;;;;;;5000980;28;20984;-83
2022/04/29 14:00:32;;;;;;;9.17;6.00;;;;;;;;;;5001245;28;20406;-81
2022/04/29 14:02:58;;;;;;;8.17;7.00;;;;;;;;;;4986001;28;20424;-80
2022/04/29 14:05:24;;;;;;;9.50;7.27;;;;;;;;;;4984942;28;20450;-83
2022/04/29 14:07:51;;;;;;;7.43;6.03;;;;;;;;;;4985935;28;20478;-81
2022/04/29 14:10:17;;;;;;;8.60;7.90;;;;;;;;;;4983383;28;20410;-81
2022/04/29 14:12:43;;;;;;;10.40;8.70;;;;;;;;;;5000442;28;20454;-79
2022/04/29 14:15:10;;;;;;;9.70;8.00;;;;;;;;;;5002672;28;20438;-83
2022/04/29 14:17:36;;;;;;;9.57;8.60;;;;;;;;;;4986196;28;20466;-80
2022/04/29 14:20:02;;;;;;;8.90;8.10;;;;;;;;;;5000413;28;20516;-81
2022/04/29 14:22:28;;;;;;;9.63;8.53;;;;;;;;;;4984199;28;20532;-80
2022/04/29 14:24:55;;;;;;;10.60;7.70;;;;;;;;;;5000630;28;20445;-80
2022/04/29 14:27:20;;;;;;;9.23;8.00;;;;;;;;;;4983658;28;20438;-81
2022/04/29 14:29:48;;;;;;;9.70;7.83;;;;;;;;;;4986805;28;20400;-82
2022/04/29 14:32:14;;;;;;;9.10;7.63;;;;;;;;;;5000756;28;20448;-81
2022/04/29 14:34:41;;;;;;;7.10;5.77;;;;;;;;;;4994794;28;20450;-81
2022/04/29 14:37:07;;;;;;;13.83;9.67;;;;;;;;;;4983182;28;20438;-81
2022/04/29 14:39:33;;;;;;;10.50;8.03;;;;;;;;;;5000876;28;20457;-80
2022/04/29 14:41:59;;;;;;;11.53;7.90;;;;;;;;;;4985464;28;20411;-80
2022/04/29 14:44:25;;;;;;;11.07;8.27;;;;;;;;;;4985021;28;20418;-81
2022/04/29 14:46:52;;;;;;;9.10;8.20;;;;;;;;;;5000703;28;20407;-81